sensor_id;sensor_type;location;lat;lon;timestamp;P1;durP1;ratioP1;P2;durP2;ratioP2
6651;SDS011;3362;50.892;10.692;2022-12-07T00:00:42;1.85;;;1.25;;
6651;SDS011;3362;50.892;10.692;2022-12-07T00:03:08;2.08;;;1.35;;
6651;SDS011;3362;50.892;10.692;2022-12-07T00:05:36;1.88;;;1.13;;
6651;SDS011;3362;50.892;10.692;2022-12-07T00:08:02;1.25;;;0.85;;
6651;SDS011;3362;50.892;10.692;2022-12-07T00:10:28;1.77;;;1.25;;
6651;SDS011;3362;50.892;10.692;2022-12-07T00:12:55;1.88;;;1.23;;
6651;SDS011;3362;50.892;10.692;2022-12-07T00:15:21;1.55;;;0.93;;
6651;SDS011;3362;50.892;10.692;2022-12-07T00:17:47;2.92;;;1.23;;
6651;SDS011;3362;50.892;10.692;2022-12-07T00:20:13;1.52;;;1.42;;
6651;SDS011;3362;50.892;10.692;2022-12-07T00:22:41;2.50;;;2.05;;
6651;SDS011;3362;50.892;10.692;2022-12-07T00:25:07;6.07;;;2.50;;
6651;SDS011;3362;50.892;10.692;2022-12-07T00:27:34;4.72;;;2.08;;
6651;SDS011;3362;50.892;10.692;2022-12-07T00:30:00;2.25;;;1.33;;
6651;SDS011;3362;50.892;10.692;2022-12-07T00:32:26;3.88;;;2.05;;
6651;SDS011;3362;50.892;10.692;2022-12-07T00:34:52;3.53;;;1.80;;
6651;SDS011;3362;50.892;10.692;2022-12-07T00:37:19;6.82;;;2.33;;
6651;SDS011;3362;50.892;10.692;2022-12-07T00:39:46;4.22;;;2.53;;
6651;SDS011;3362;50.892;10.692;2022-12-07T00:42:12;3.33;;;2.25;;
6651;SDS011;3362;50.892;10.692;2022-12-07T00:44:39;3.28;;;2.05;;
6651;SDS011;3362;50.892;10.692;2022-12-07T00:47:05;3.63;;;1.92;;
6651;SDS011;3362;50.892;10.692;2022-12-07T00:49:31;5.03;;;2.05;;
6651;SDS011;3362;50.892;10.692;2022-12-07T00:51:57;3.63;;;2.38;;
6651;SDS011;3362;50.892;10.692;2022-12-07T00:54:24;10.73;;;3.05;;
6651;SDS011;3362;50.892;10.692;2022-12-07T00:56:51;3.45;;;2.03;;
6651;SDS011;3362;50.892;10.692;2022-12-07T00:59:18;4.30;;;1.90;;
6651;SDS011;3362;50.892;10.692;2022-12-07T01:01:44;5.50;;;2.75;;
6651;SDS011;3362;50.892;10.692;2022-12-07T01:04:10;4.43;;;2.63;;
6651;SDS011;3362;50.892;10.692;2022-12-07T01:06:36;3.55;;;1.95;;
6651;SDS011;3362;50.892;10.692;2022-12-07T01:09:03;3.65;;;1.73;;
6651;SDS011;3362;50.892;10.692;2022-12-07T01:11:29;3.00;;;2.08;;
6651;SDS011;3362;50.892;10.692;2022-12-07T01:13:58;3.95;;;2.15;;
6651;SDS011;3362;50.892;10.692;2022-12-07T01:16:25;4.72;;;2.45;;
6651;SDS011;3362;50.892;10.692;2022-12-07T01:18:53;3.72;;;1.95;;
6651;SDS011;3362;50.892;10.692;2022-12-07T01:21:20;4.68;;;2.10;;
6651;SDS011;3362;50.892;10.692;2022-12-07T01:23:46;3.15;;;1.83;;
6651;SDS011;3362;50.892;10.692;2022-12-07T01:26:13;4.07;;;2.20;;
6651;SDS011;3362;50.892;10.692;2022-12-07T01:28:39;3.80;;;2.00;;
6651;SDS011;3362;50.892;10.692;2022-12-07T01:31:08;3.10;;;1.98;;
6651;SDS011;3362;50.892;10.692;2022-12-07T01:33:35;3.78;;;1.90;;
6651;SDS011;3362;50.892;10.692;2022-12-07T01:36:03;4.57;;;2.25;;
6651;SDS011;3362;50.892;10.692;2022-12-07T01:38:29;9.18;;;2.40;;
6651;SDS011;3362;50.892;10.692;2022-12-07T01:40:56;3.53;;;2.25;;
6651;SDS011;3362;50.892;10.692;2022-12-07T01:43:23;4.22;;;2.05;;
6651;SDS011;3362;50.892;10.692;2022-12-07T01:45:49;4.25;;;2.67;;
6651;SDS011;3362;50.892;10.692;2022-12-07T01:48:18;3.45;;;2.38;;
6651;SDS011;3362;50.892;10.692;2022-12-07T01:50:47;3.53;;;2.65;;
6651;SDS011;3362;50.892;10.692;2022-12-07T01:53:14;5.97;;;2.75;;
6651;SDS011;3362;50.892;10.692;2022-12-07T01:55:41;6.18;;;2.92;;
6651;SDS011;3362;50.892;10.692;2022-12-07T01:58:08;5.10;;;3.00;;
6651;SDS011;3362;50.892;10.692;2022-12-07T02:00:35;5.95;;;3.15;;
6651;SDS011;3362;50.892;10.692;2022-12-07T02:03:03;5.60;;;2.67;;
6651;SDS011;3362;50.892;10.692;2022-12-07T02:05:31;5.70;;;2.97;;
6651;SDS011;3362;50.892;10.692;2022-12-07T02:07:58;4.63;;;2.92;;
6651;SDS011;3362;50.892;10.692;2022-12-07T02:10:25;5.43;;;3.30;;
6651;SDS011;3362;50.892;10.692;2022-12-07T02:12:52;4.30;;;2.72;;
6651;SDS011;3362;50.892;10.692;2022-12-07T02:15:20;5.75;;;2.70;;
6651;SDS011;3362;50.892;10.692;2022-12-07T02:17:49;5.18;;;3.10;;
6651;SDS011;3362;50.892;10.692;2022-12-07T02:20:21;3.92;;;2.17;;
6651;SDS011;3362;50.892;10.692;2022-12-07T02:22:59;5.80;;;2.33;;
6651;SDS011;3362;50.892;10.692;2022-12-07T02:25:30;3.88;;;2.47;;
6651;SDS011;3362;50.892;10.692;2022-12-07T02:28:01;6.35;;;3.00;;
6651;SDS011;3362;50.892;10.692;2022-12-07T02:30:31;5.25;;;2.88;;
6651;SDS011;3362;50.892;10.692;2022-12-07T02:33:00;5.18;;;2.53;;
6651;SDS011;3362;50.892;10.692;2022-12-07T02:35:30;3.53;;;1.88;;
6651;SDS011;3362;50.892;10.692;2022-12-07T02:37:59;4.43;;;2.53;;
6651;SDS011;3362;50.892;10.692;2022-12-07T02:40:31;4.18;;;2.22;;
6651;SDS011;3362;50.892;10.692;2022-12-07T02:43:00;4.38;;;2.42;;
6651;SDS011;3362;50.892;10.692;2022-12-07T02:45:27;4.90;;;2.03;;
6651;SDS011;3362;50.892;10.692;2022-12-07T02:47:57;5.40;;;2.55;;
6651;SDS011;3362;50.892;10.692;2022-12-07T02:50:24;4.03;;;2.80;;
6651;SDS011;3362;50.892;10.692;2022-12-07T02:52:51;4.30;;;2.45;;
6651;SDS011;3362;50.892;10.692;2022-12-07T02:55:18;4.40;;;2.53;;
6651;SDS011;3362;50.892;10.692;2022-12-07T02:57:49;6.53;;;3.42;;
6651;SDS011;3362;50.892;10.692;2022-12-07T03:00:19;3.55;;;2.33;;
6651;SDS011;3362;50.892;10.692;2022-12-07T03:02:49;7.68;;;3.58;;
6651;SDS011;3362;50.892;10.692;2022-12-07T03:05:26;4.53;;;2.10;;
6651;SDS011;3362;50.892;10.692;2022-12-07T03:07:58;5.18;;;2.42;;
6651;SDS011;3362;50.892;10.692;2022-12-07T03:10:27;6.28;;;2.75;;
6651;SDS011;3362;50.892;10.692;2022-12-07T03:12:56;2.03;;;1.50;;
6651;SDS011;3362;50.892;10.692;2022-12-07T03:15:26;6.43;;;3.33;;
6651;SDS011;3362;50.892;10.692;2022-12-07T03:17:53;6.28;;;3.13;;
6651;SDS011;3362;50.892;10.692;2022-12-07T03:20:21;5.07;;;3.20;;
6651;SDS011;3362;50.892;10.692;2022-12-07T03:22:51;5.88;;;2.75;;
6651;SDS011;3362;50.892;10.692;2022-12-07T03:25:18;5.55;;;2.85;;
6651;SDS011;3362;50.892;10.692;2022-12-07T03:27:46;4.00;;;3.00;;
6651;SDS011;3362;50.892;10.692;2022-12-07T03:30:15;6.07;;;2.85;;
6651;SDS011;3362;50.892;10.692;2022-12-07T03:32:43;4.35;;;2.40;;
6651;SDS011;3362;50.892;10.692;2022-12-07T03:35:11;5.43;;;2.65;;
6651;SDS011;3362;50.892;10.692;2022-12-07T03:37:41;2.85;;;2.08;;
6651;SDS011;3362;50.892;10.692;2022-12-07T03:40:11;5.60;;;2.00;;
6651;SDS011;3362;50.892;10.692;2022-12-07T03:42:39;5.28;;;2.50;;
6651;SDS011;3362;50.892;10.692;2022-12-07T03:45:05;3.65;;;2.17;;
6651;SDS011;3362;50.892;10.692;2022-12-07T03:47:33;4.97;;;2.25;;
6651;SDS011;3362;50.892;10.692;2022-12-07T03:50:02;4.57;;;2.47;;
6651;SDS011;3362;50.892;10.692;2022-12-07T03:52:31;3.38;;;2.20;;
6651;SDS011;3362;50.892;10.692;2022-12-07T03:55:00;6.07;;;3.10;;
6651;SDS011;3362;50.892;10.692;2022-12-07T03:57:29;3.47;;;2.10;;
6651;SDS011;3362;50.892;10.692;2022-12-07T03:59:56;3.20;;;2.17;;
6651;SDS011;3362;50.892;10.692;2022-12-07T04:02:23;6.10;;;3.63;;
6651;SDS011;3362;50.892;10.692;2022-12-07T04:04:51;6.72;;;3.60;;
6651;SDS011;3362;50.892;10.692;2022-12-07T04:07:17;6.80;;;3.10;;
6651;SDS011;3362;50.892;10.692;2022-12-07T04:09:44;5.53;;;3.40;;
6651;SDS011;3362;50.892;10.692;2022-12-07T04:12:11;5.68;;;2.30;;
6651;SDS011;3362;50.892;10.692;2022-12-07T04:14:38;7.63;;;3.03;;
6651;SDS011;3362;50.892;10.692;2022-12-07T04:17:05;6.60;;;3.45;;
6651;SDS011;3362;50.892;10.692;2022-12-07T04:19:32;5.57;;;3.08;;
6651;SDS011;3362;50.892;10.692;2022-12-07T04:21:59;5.07;;;3.28;;
6651;SDS011;3362;50.892;10.692;2022-12-07T04:24:26;4.78;;;3.25;;
6651;SDS011;3362;50.892;10.692;2022-12-07T04:26:53;5.63;;;3.33;;
6651;SDS011;3362;50.892;10.692;2022-12-07T04:29:19;6.82;;;3.22;;
6651;SDS011;3362;50.892;10.692;2022-12-07T04:31:47;4.20;;;2.65;;
6651;SDS011;3362;50.892;10.692;2022-12-07T04:34:13;3.28;;;2.03;;
6651;SDS011;3362;50.892;10.692;2022-12-07T04:36:40;3.05;;;2.47;;
6651;SDS011;3362;50.892;10.692;2022-12-07T04:39:07;4.07;;;2.10;;
6651;SDS011;3362;50.892;10.692;2022-12-07T04:41:34;2.67;;;1.38;;
6651;SDS011;3362;50.892;10.692;2022-12-07T04:44:00;3.53;;;2.00;;
6651;SDS011;3362;50.892;10.692;2022-12-07T04:46:28;3.38;;;1.95;;
6651;SDS011;3362;50.892;10.692;2022-12-07T04:48:56;3.38;;;2.63;;
6651;SDS011;3362;50.892;10.692;2022-12-07T04:51:23;4.22;;;2.40;;
6651;SDS011;3362;50.892;10.692;2022-12-07T04:53:50;2.20;;;1.58;;
6651;SDS011;3362;50.892;10.692;2022-12-07T04:56:16;7.43;;;2.80;;
6651;SDS011;3362;50.892;10.692;2022-12-07T04:58:44;3.05;;;2.13;;
6651;SDS011;3362;50.892;10.692;2022-12-07T05:01:10;4.65;;;3.03;;
6651;SDS011;3362;50.892;10.692;2022-12-07T05:03:37;3.45;;;2.28;;
6651;SDS011;3362;50.892;10.692;2022-12-07T05:06:05;5.78;;;2.78;;
6651;SDS011;3362;50.892;10.692;2022-12-07T05:08:32;4.97;;;2.58;;
6651;SDS011;3362;50.892;10.692;2022-12-07T05:10:58;4.82;;;3.22;;
6651;SDS011;3362;50.892;10.692;2022-12-07T05:13:25;4.88;;;3.20;;
6651;SDS011;3362;50.892;10.692;2022-12-07T05:15:51;5.90;;;3.20;;
6651;SDS011;3362;50.892;10.692;2022-12-07T05:18:17;5.07;;;2.95;;
6651;SDS011;3362;50.892;10.692;2022-12-07T05:20:44;7.18;;;3.70;;
6651;SDS011;3362;50.892;10.692;2022-12-07T05:23:11;7.80;;;3.80;;
6651;SDS011;3362;50.892;10.692;2022-12-07T05:25:39;7.18;;;3.95;;
6651;SDS011;3362;50.892;10.692;2022-12-07T05:28:05;8.30;;;4.10;;
6651;SDS011;3362;50.892;10.692;2022-12-07T05:30:32;6.60;;;3.92;;
6651;SDS011;3362;50.892;10.692;2022-12-07T05:32:58;5.97;;;3.15;;
6651;SDS011;3362;50.892;10.692;2022-12-07T05:35:24;8.30;;;3.85;;
6651;SDS011;3362;50.892;10.692;2022-12-07T05:37:51;7.30;;;3.88;;
6651;SDS011;3362;50.892;10.692;2022-12-07T05:40:18;5.75;;;3.03;;
6651;SDS011;3362;50.892;10.692;2022-12-07T05:42:45;4.20;;;2.90;;
6651;SDS011;3362;50.892;10.692;2022-12-07T05:45:11;5.03;;;3.15;;
6651;SDS011;3362;50.892;10.692;2022-12-07T05:47:37;3.85;;;2.50;;
6651;SDS011;3362;50.892;10.692;2022-12-07T05:50:04;4.68;;;2.97;;
6651;SDS011;3362;50.892;10.692;2022-12-07T05:52:31;4.55;;;2.88;;
6651;SDS011;3362;50.892;10.692;2022-12-07T05:54:58;5.47;;;2.83;;
6651;SDS011;3362;50.892;10.692;2022-12-07T05:57:25;3.90;;;3.00;;
6651;SDS011;3362;50.892;10.692;2022-12-07T05:59:51;4.15;;;2.53;;
6651;SDS011;3362;50.892;10.692;2022-12-07T06:02:17;3.55;;;2.30;;
6651;SDS011;3362;50.892;10.692;2022-12-07T06:04:44;4.38;;;2.63;;
6651;SDS011;3362;50.892;10.692;2022-12-07T06:07:11;4.65;;;2.40;;
6651;SDS011;3362;50.892;10.692;2022-12-07T06:09:38;3.42;;;2.28;;
6651;SDS011;3362;50.892;10.692;2022-12-07T06:12:04;4.40;;;2.70;;
6651;SDS011;3362;50.892;10.692;2022-12-07T06:14:49;11.15;;;4.43;;
6651;SDS011;3362;50.892;10.692;2022-12-07T06:17:16;10.75;;;4.82;;
6651;SDS011;3362;50.892;10.692;2022-12-07T06:19:42;4.97;;;3.03;;
6651;SDS011;3362;50.892;10.692;2022-12-07T06:22:08;4.68;;;2.78;;
6651;SDS011;3362;50.892;10.692;2022-12-07T06:24:36;6.60;;;3.22;;
6651;SDS011;3362;50.892;10.692;2022-12-07T06:27:03;5.43;;;2.85;;
6651;SDS011;3362;50.892;10.692;2022-12-07T06:29:29;6.35;;;3.63;;
6651;SDS011;3362;50.892;10.692;2022-12-07T06:31:57;6.15;;;3.78;;
6651;SDS011;3362;50.892;10.692;2022-12-07T06:34:23;5.60;;;3.67;;
6651;SDS011;3362;50.892;10.692;2022-12-07T06:36:50;7.45;;;3.22;;
6651;SDS011;3362;50.892;10.692;2022-12-07T06:39:18;5.45;;;3.63;;
6651;SDS011;3362;50.892;10.692;2022-12-07T06:41:45;6.45;;;3.83;;
6651;SDS011;3362;50.892;10.692;2022-12-07T06:44:11;6.28;;;3.80;;
6651;SDS011;3362;50.892;10.692;2022-12-07T06:46:37;5.68;;;2.53;;
6651;SDS011;3362;50.892;10.692;2022-12-07T06:49:05;8.65;;;3.70;;
6651;SDS011;3362;50.892;10.692;2022-12-07T06:51:32;7.15;;;3.85;;
6651;SDS011;3362;50.892;10.692;2022-12-07T06:54:00;7.35;;;3.90;;
6651;SDS011;3362;50.892;10.692;2022-12-07T06:56:26;8.43;;;4.75;;
6651;SDS011;3362;50.892;10.692;2022-12-07T06:58:53;5.53;;;3.43;;
6651;SDS011;3362;50.892;10.692;2022-12-07T07:01:20;6.65;;;3.72;;
6651;SDS011;3362;50.892;10.692;2022-12-07T07:03:46;6.97;;;3.80;;
6651;SDS011;3362;50.892;10.692;2022-12-07T07:06:14;6.03;;;3.58;;
6651;SDS011;3362;50.892;10.692;2022-12-07T07:08:41;10.88;;;4.07;;
6651;SDS011;3362;50.892;10.692;2022-12-07T07:11:07;9.35;;;3.65;;
6651;SDS011;3362;50.892;10.692;2022-12-07T07:13:34;5.15;;;3.25;;
6651;SDS011;3362;50.892;10.692;2022-12-07T07:16:00;11.63;;;4.22;;
6651;SDS011;3362;50.892;10.692;2022-12-07T07:18:27;10.90;;;4.20;;
6651;SDS011;3362;50.892;10.692;2022-12-07T07:20:54;5.93;;;3.42;;
6651;SDS011;3362;50.892;10.692;2022-12-07T07:23:21;9.95;;;3.50;;
6651;SDS011;3362;50.892;10.692;2022-12-07T07:25:48;6.68;;;3.78;;
6651;SDS011;3362;50.892;10.692;2022-12-07T07:28:14;4.88;;;3.03;;
6651;SDS011;3362;50.892;10.692;2022-12-07T07:30:40;6.93;;;4.00;;
6651;SDS011;3362;50.892;10.692;2022-12-07T07:33:06;5.78;;;4.03;;
6651;SDS011;3362;50.892;10.692;2022-12-07T07:35:33;5.45;;;3.45;;
6651;SDS011;3362;50.892;10.692;2022-12-07T07:38:00;5.88;;;3.67;;
6651;SDS011;3362;50.892;10.692;2022-12-07T07:40:28;9.00;;;3.67;;
6651;SDS011;3362;50.892;10.692;2022-12-07T07:42:54;4.30;;;2.92;;
6651;SDS011;3362;50.892;10.692;2022-12-07T07:45:22;3.60;;;2.45;;
6651;SDS011;3362;50.892;10.692;2022-12-07T07:47:48;7.82;;;3.00;;
6651;SDS011;3362;50.892;10.692;2022-12-07T07:50:15;3.80;;;1.90;;
6651;SDS011;3362;50.892;10.692;2022-12-07T07:52:42;4.25;;;2.45;;
6651;SDS011;3362;50.892;10.692;2022-12-07T07:55:08;2.40;;;1.65;;
6651;SDS011;3362;50.892;10.692;2022-12-07T07:57:36;5.20;;;1.60;;
6651;SDS011;3362;50.892;10.692;2022-12-07T08:00:03;3.53;;;1.90;;
6651;SDS011;3362;50.892;10.692;2022-12-07T08:02:29;5.35;;;1.83;;
6651;SDS011;3362;50.892;10.692;2022-12-07T08:04:56;6.60;;;2.10;;
6651;SDS011;3362;50.892;10.692;2022-12-07T08:07:22;2.78;;;1.42;;
6651;SDS011;3362;50.892;10.692;2022-12-07T08:09:48;3.60;;;1.98;;
6651;SDS011;3362;50.892;10.692;2022-12-07T08:12:14;4.43;;;1.88;;
6651;SDS011;3362;50.892;10.692;2022-12-07T08:14:42;8.60;;;1.60;;
6651;SDS011;3362;50.892;10.692;2022-12-07T08:17:08;3.53;;;1.77;;
6651;SDS011;3362;50.892;10.692;2022-12-07T08:19:34;5.57;;;2.03;;
6651;SDS011;3362;50.892;10.692;2022-12-07T08:22:01;2.08;;;1.25;;
6651;SDS011;3362;50.892;10.692;2022-12-07T08:24:27;4.15;;;2.03;;
6651;SDS011;3362;50.892;10.692;2022-12-07T08:26:54;6.78;;;1.92;;
6651;SDS011;3362;50.892;10.692;2022-12-07T08:29:20;3.30;;;1.63;;
6651;SDS011;3362;50.892;10.692;2022-12-07T08:31:48;3.90;;;0.98;;
6651;SDS011;3362;50.892;10.692;2022-12-07T08:34:14;1.55;;;1.35;;
6651;SDS011;3362;50.892;10.692;2022-12-07T08:36:40;3.05;;;1.50;;
6651;SDS011;3362;50.892;10.692;2022-12-07T08:39:07;3.72;;;1.42;;
6651;SDS011;3362;50.892;10.692;2022-12-07T08:41:33;3.17;;;1.30;;
6651;SDS011;3362;50.892;10.692;2022-12-07T08:43:59;1.48;;;1.00;;
6651;SDS011;3362;50.892;10.692;2022-12-07T08:46:26;3.97;;;2.65;;
6651;SDS011;3362;50.892;10.692;2022-12-07T08:48:56;3.40;;;1.05;;
6651;SDS011;3362;50.892;10.692;2022-12-07T08:51:24;2.25;;;1.08;;
6651;SDS011;3362;50.892;10.692;2022-12-07T08:53:50;2.03;;;1.30;;
6651;SDS011;3362;50.892;10.692;2022-12-07T08:56:17;3.90;;;1.80;;
6651;SDS011;3362;50.892;10.692;2022-12-07T08:58:44;3.20;;;1.70;;
6651;SDS011;3362;50.892;10.692;2022-12-07T09:01:10;2.33;;;1.33;;
6651;SDS011;3362;50.892;10.692;2022-12-07T09:03:37;1.60;;;1.10;;
6651;SDS011;3362;50.892;10.692;2022-12-07T09:06:05;4.13;;;1.67;;
6651;SDS011;3362;50.892;10.692;2022-12-07T09:08:32;2.05;;;1.40;;
6651;SDS011;3362;50.892;10.692;2022-12-07T09:10:59;4.85;;;1.92;;
6651;SDS011;3362;50.892;10.692;2022-12-07T09:13:25;2.40;;;1.92;;
6651;SDS011;3362;50.892;10.692;2022-12-07T09:15:51;5.05;;;1.88;;
6651;SDS011;3362;50.892;10.692;2022-12-07T09:18:18;2.78;;;1.67;;
6651;SDS011;3362;50.892;10.692;2022-12-07T09:20:44;4.88;;;1.27;;
6651;SDS011;3362;50.892;10.692;2022-12-07T09:23:12;2.78;;;1.25;;
6651;SDS011;3362;50.892;10.692;2022-12-07T09:25:38;4.75;;;1.48;;
6651;SDS011;3362;50.892;10.692;2022-12-07T09:28:04;3.83;;;1.20;;
6651;SDS011;3362;50.892;10.692;2022-12-07T09:30:30;3.35;;;1.70;;
6651;SDS011;3362;50.892;10.692;2022-12-07T09:32:57;5.35;;;1.70;;
6651;SDS011;3362;50.892;10.692;2022-12-07T09:35:23;5.15;;;1.83;;
6651;SDS011;3362;50.892;10.692;2022-12-07T09:37:50;2.67;;;0.90;;
6651;SDS011;3362;50.892;10.692;2022-12-07T09:40:18;5.93;;;1.60;;
6651;SDS011;3362;50.892;10.692;2022-12-07T09:42:47;2.20;;;1.23;;
6651;SDS011;3362;50.892;10.692;2022-12-07T09:45:15;3.35;;;1.52;;
6651;SDS011;3362;50.892;10.692;2022-12-07T09:47:42;5.53;;;1.17;;
6651;SDS011;3362;50.892;10.692;2022-12-07T09:50:12;2.50;;;1.35;;
6651;SDS011;3362;50.892;10.692;2022-12-07T09:52:39;2.28;;;1.48;;
6651;SDS011;3362;50.892;10.692;2022-12-07T09:55:09;1.75;;;1.23;;
6651;SDS011;3362;50.892;10.692;2022-12-07T09:57:37;2.17;;;1.55;;
6651;SDS011;3362;50.892;10.692;2022-12-07T10:00:05;3.05;;;1.15;;
6651;SDS011;3362;50.892;10.692;2022-12-07T10:02:34;2.25;;;1.80;;
6651;SDS011;3362;50.892;10.692;2022-12-07T10:05:01;2.28;;;1.75;;
6651;SDS011;3362;50.892;10.692;2022-12-07T10:07:29;3.40;;;1.75;;
6651;SDS011;3362;50.892;10.692;2022-12-07T10:09:55;2.78;;;1.60;;
6651;SDS011;3362;50.892;10.692;2022-12-07T10:12:21;3.67;;;1.75;;
6651;SDS011;3362;50.892;10.692;2022-12-07T10:14:56;3.22;;;1.40;;
6651;SDS011;3362;50.892;10.692;2022-12-07T10:17:28;1.23;;;0.90;;
6651;SDS011;3362;50.892;10.692;2022-12-07T10:20:07;2.33;;;1.52;;
6651;SDS011;3362;50.892;10.692;2022-12-07T10:22:34;1.67;;;1.30;;
6651;SDS011;3362;50.892;10.692;2022-12-07T10:25:07;1.75;;;1.10;;
6651;SDS011;3362;50.892;10.692;2022-12-07T10:27:34;2.28;;;1.30;;
6651;SDS011;3362;50.892;10.692;2022-12-07T10:30:01;1.90;;;1.08;;
6651;SDS011;3362;50.892;10.692;2022-12-07T10:32:33;3.85;;;1.75;;
6651;SDS011;3362;50.892;10.692;2022-12-07T10:37:51;1.85;;;0.90;;
6651;SDS011;3362;50.892;10.692;2022-12-07T10:40:25;2.05;;;1.15;;
6651;SDS011;3362;50.892;10.692;2022-12-07T10:43:00;3.35;;;2.08;;
6651;SDS011;3362;50.892;10.692;2022-12-07T10:45:28;0.80;;;0.60;;
6651;SDS011;3362;50.892;10.692;2022-12-07T10:47:55;2.35;;;1.00;;
6651;SDS011;3362;50.892;10.692;2022-12-07T10:50:29;1.35;;;0.80;;
6651;SDS011;3362;50.892;10.692;2022-12-07T10:53:06;2.38;;;0.82;;
6651;SDS011;3362;50.892;10.692;2022-12-07T10:55:39;4.30;;;0.80;;
6651;SDS011;3362;50.892;10.692;2022-12-07T10:58:13;1.17;;;0.70;;
6651;SDS011;3362;50.892;10.692;2022-12-07T11:00:45;2.63;;;1.00;;
6651;SDS011;3362;50.892;10.692;2022-12-07T11:03:20;3.92;;;1.05;;
6651;SDS011;3362;50.892;10.692;2022-12-07T11:05:50;1.33;;;0.77;;
6651;SDS011;3362;50.892;10.692;2022-12-07T11:08:20;3.72;;;0.82;;
6651;SDS011;3362;50.892;10.692;2022-12-07T11:10:49;2.10;;;0.90;;
6651;SDS011;3362;50.892;10.692;2022-12-07T11:13:22;1.42;;;1.30;;
6651;SDS011;3362;50.892;10.692;2022-12-07T11:15:57;1.75;;;0.73;;
6651;SDS011;3362;50.892;10.692;2022-12-07T11:18:28;0.73;;;0.47;;
6651;SDS011;3362;50.892;10.692;2022-12-07T11:20:57;2.15;;;1.15;;
6651;SDS011;3362;50.892;10.692;2022-12-07T11:23:27;2.05;;;1.20;;
6651;SDS011;3362;50.892;10.692;2022-12-07T11:25:54;2.90;;;1.45;;
6651;SDS011;3362;50.892;10.692;2022-12-07T11:28:26;1.35;;;0.88;;
6651;SDS011;3362;50.892;10.692;2022-12-07T11:30:59;1.80;;;1.17;;
6651;SDS011;3362;50.892;10.692;2022-12-07T11:33:32;3.22;;;1.00;;
6651;SDS011;3362;50.892;10.692;2022-12-07T11:36:02;1.15;;;1.00;;
6651;SDS011;3362;50.892;10.692;2022-12-07T11:38:32;1.88;;;0.93;;
6651;SDS011;3362;50.892;10.692;2022-12-07T11:41:00;2.08;;;0.70;;
6651;SDS011;3362;50.892;10.692;2022-12-07T11:43:37;0.75;;;0.43;;
6651;SDS011;3362;50.892;10.692;2022-12-07T11:46:12;1.08;;;0.70;;
6651;SDS011;3362;50.892;10.692;2022-12-07T11:48:40;2.97;;;1.42;;
6651;SDS011;3362;50.892;10.692;2022-12-07T11:51:09;2.83;;;0.85;;
6651;SDS011;3362;50.892;10.692;2022-12-07T11:53:37;1.40;;;0.55;;
6651;SDS011;3362;50.892;10.692;2022-12-07T11:56:07;2.35;;;0.80;;
6651;SDS011;3362;50.892;10.692;2022-12-07T12:04:05;0.68;;;0.45;;
6651;SDS011;3362;50.892;10.692;2022-12-07T12:06:32;1.55;;;0.85;;
6651;SDS011;3362;50.892;10.692;2022-12-07T12:09:01;1.02;;;0.90;;
6651;SDS011;3362;50.892;10.692;2022-12-07T12:11:34;1.13;;;0.80;;
6651;SDS011;3362;50.892;10.692;2022-12-07T12:14:10;3.88;;;0.80;;
6651;SDS011;3362;50.892;10.692;2022-12-07T12:16:48;0.70;;;0.52;;
6651;SDS011;3362;50.892;10.692;2022-12-07T12:19:21;0.70;;;0.50;;
6651;SDS011;3362;50.892;10.692;2022-12-07T12:21:48;3.33;;;0.60;;
6651;SDS011;3362;50.892;10.692;2022-12-07T12:24:15;2.20;;;0.70;;
6651;SDS011;3362;50.892;10.692;2022-12-07T12:26:48;3.92;;;0.68;;
6651;SDS011;3362;50.892;10.692;2022-12-07T12:29:19;1.02;;;0.65;;
6651;SDS011;3362;50.892;10.692;2022-12-07T12:31:48;1.38;;;0.47;;
6651;SDS011;3362;50.892;10.692;2022-12-07T12:34:32;7.13;;;0.88;;
6651;SDS011;3362;50.892;10.692;2022-12-07T12:36:59;2.38;;;0.50;;
6651;SDS011;3362;50.892;10.692;2022-12-07T12:39:25;4.13;;;1.23;;
6651;SDS011;3362;50.892;10.692;2022-12-07T12:41:55;1.30;;;0.63;;
6651;SDS011;3362;50.892;10.692;2022-12-07T12:50:32;2.60;;;0.75;;
6651;SDS011;3362;50.892;10.692;2022-12-07T12:56:03;1.02;;;0.47;;
6651;SDS011;3362;50.892;10.692;2022-12-07T12:58:38;0.65;;;0.32;;
6651;SDS011;3362;50.892;10.692;2022-12-07T13:03:51;1.30;;;0.38;;
6651;SDS011;3362;50.892;10.692;2022-12-07T13:06:30;0.90;;;0.40;;
6651;SDS011;3362;50.892;10.692;2022-12-07T13:08:58;0.95;;;0.45;;
6651;SDS011;3362;50.892;10.692;2022-12-07T13:11:28;2.00;;;0.80;;
6651;SDS011;3362;50.892;10.692;2022-12-07T13:16:38;1.98;;;0.60;;
6651;SDS011;3362;50.892;10.692;2022-12-07T13:21:56;0.80;;;0.50;;
6651;SDS011;3362;50.892;10.692;2022-12-07T13:24:22;1.05;;;0.60;;
6651;SDS011;3362;50.892;10.692;2022-12-07T13:26:51;2.58;;;0.63;;
6651;SDS011;3362;50.892;10.692;2022-12-07T13:29:21;1.00;;;0.63;;
6651;SDS011;3362;50.892;10.692;2022-12-07T13:31:48;1.90;;;0.50;;
6651;SDS011;3362;50.892;10.692;2022-12-07T13:34:28;1.08;;;0.75;;
6651;SDS011;3362;50.892;10.692;2022-12-07T13:36:54;2.15;;;0.63;;
6651;SDS011;3362;50.892;10.692;2022-12-07T13:39:23;4.03;;;0.95;;
6651;SDS011;3362;50.892;10.692;2022-12-07T13:41:51;1.13;;;0.80;;
6651;SDS011;3362;50.892;10.692;2022-12-07T13:44:18;1.02;;;0.93;;
6651;SDS011;3362;50.892;10.692;2022-12-07T13:46:46;1.23;;;0.85;;
6651;SDS011;3362;50.892;10.692;2022-12-07T13:49:16;1.20;;;0.60;;
6651;SDS011;3362;50.892;10.692;2022-12-07T13:51:43;2.92;;;0.73;;
6651;SDS011;3362;50.892;10.692;2022-12-07T13:54:10;1.00;;;0.70;;
6651;SDS011;3362;50.892;10.692;2022-12-07T13:56:38;0.50;;;0.30;;
6651;SDS011;3362;50.892;10.692;2022-12-07T13:59:04;1.65;;;0.50;;
6651;SDS011;3362;50.892;10.692;2022-12-07T14:01:32;1.38;;;0.68;;
6651;SDS011;3362;50.892;10.692;2022-12-07T14:06:46;1.58;;;0.68;;
6651;SDS011;3362;50.892;10.692;2022-12-07T14:09:19;2.70;;;0.77;;
6651;SDS011;3362;50.892;10.692;2022-12-07T14:11:49;0.82;;;0.50;;
6651;SDS011;3362;50.892;10.692;2022-12-07T14:14:16;1.65;;;0.50;;
6651;SDS011;3362;50.892;10.692;2022-12-07T14:16:54;0.45;;;0.30;;
6651;SDS011;3362;50.892;10.692;2022-12-07T14:22:06;4.57;;;1.00;;
6651;SDS011;3362;50.892;10.692;2022-12-07T14:24:40;0.93;;;0.38;;
6651;SDS011;3362;50.892;10.692;2022-12-07T14:27:16;3.35;;;0.50;;
6651;SDS011;3362;50.892;10.692;2022-12-07T14:29:42;1.42;;;0.73;;
6651;SDS011;3362;50.892;10.692;2022-12-07T14:32:15;0.22;;;0.20;;
6651;SDS011;3362;50.892;10.692;2022-12-07T14:34:52;4.68;;;0.75;;
6651;SDS011;3362;50.892;10.692;2022-12-07T14:37:18;0.50;;;0.50;;
6651;SDS011;3362;50.892;10.692;2022-12-07T14:39:45;0.70;;;0.40;;
6651;SDS011;3362;50.892;10.692;2022-12-07T14:42:11;1.30;;;0.65;;
6651;SDS011;3362;50.892;10.692;2022-12-07T14:44:39;1.40;;;0.43;;
6651;SDS011;3362;50.892;10.692;2022-12-07T14:47:05;2.30;;;0.60;;
6651;SDS011;3362;50.892;10.692;2022-12-07T14:49:31;1.88;;;0.30;;
6651;SDS011;3362;50.892;10.692;2022-12-07T14:51:57;2.03;;;0.50;;
6651;SDS011;3362;50.892;10.692;2022-12-07T14:54:24;2.80;;;0.75;;
6651;SDS011;3362;50.892;10.692;2022-12-07T14:56:52;4.38;;;0.95;;
6651;SDS011;3362;50.892;10.692;2022-12-07T14:59:18;1.85;;;0.50;;
6651;SDS011;3362;50.892;10.692;2022-12-07T15:01:46;0.22;;;0.22;;
6651;SDS011;3362;50.892;10.692;2022-12-07T15:04:12;3.97;;;0.80;;
6651;SDS011;3362;50.892;10.692;2022-12-07T15:06:39;0.85;;;0.50;;
6651;SDS011;3362;50.892;10.692;2022-12-07T15:09:08;4.20;;;1.00;;
6651;SDS011;3362;50.892;10.692;2022-12-07T15:11:35;1.55;;;0.88;;
6651;SDS011;3362;50.892;10.692;2022-12-07T15:14:01;0.95;;;0.47;;
6651;SDS011;3362;50.892;10.692;2022-12-07T15:16:34;2.45;;;0.77;;
6651;SDS011;3362;50.892;10.692;2022-12-07T15:19:02;0.98;;;0.57;;
6651;SDS011;3362;50.892;10.692;2022-12-07T15:21:28;1.27;;;0.75;;
6651;SDS011;3362;50.892;10.692;2022-12-07T15:23:54;1.65;;;1.05;;
6651;SDS011;3362;50.892;10.692;2022-12-07T15:26:21;4.68;;;1.00;;
6651;SDS011;3362;50.892;10.692;2022-12-07T15:28:47;1.42;;;0.65;;
6651;SDS011;3362;50.892;10.692;2022-12-07T15:31:13;3.20;;;0.85;;
6651;SDS011;3362;50.892;10.692;2022-12-07T15:33:40;2.78;;;0.85;;
6651;SDS011;3362;50.892;10.692;2022-12-07T15:36:08;1.05;;;0.95;;